createdAt,value
2022-10-23T00:01:39.360Z,16.20
2022-10-23T00:04:11.426Z,16.10
2022-10-23T00:06:39.294Z,16.10
2022-10-23T00:09:08.409Z,16.10
2022-10-23T00:11:36.423Z,16.10
2022-10-23T00:14:06.326Z,16.10
2022-10-23T00:16:34.642Z,16.10
2022-10-23T00:19:03.237Z,16.10
2022-10-23T00:21:30.798Z,16.00
2022-10-23T00:23:58.931Z,16.00
2022-10-23T00:26:26.802Z,15.90
2022-10-23T00:28:55.083Z,15.90
2022-10-23T00:31:24.258Z,15.90
2022-10-23T00:33:52.549Z,15.80
2022-10-23T00:36:22.057Z,15.90
2022-10-23T00:38:51.510Z,15.80
2022-10-23T00:41:25.660Z,15.80
2022-10-23T00:44:04.653Z,15.70
2022-10-23T00:46:32.699Z,15.40
2022-10-23T00:49:00.925Z,15.70
2022-10-23T00:51:33.510Z,15.70
2022-10-23T00:54:22.933Z,15.60
2022-10-23T00:56:53.609Z,15.60
2022-10-23T00:59:21.327Z,15.60
2022-10-23T01:01:48.848Z,15.60
2022-10-23T01:04:16.922Z,15.60
2022-10-23T01:07:02.597Z,15.60
2022-10-23T01:09:41.638Z,15.60
2022-10-23T01:12:47.666Z,15.60
2022-10-23T01:15:26.368Z,15.50
2022-10-23T01:18:17.491Z,15.50
2022-10-23T01:20:59.772Z,15.30
2022-10-23T01:23:55.739Z,15.50
2022-10-23T01:26:47.518Z,15.40
2022-10-23T01:29:44.468Z,15.40
2022-10-23T01:32:38.493Z,15.40
2022-10-23T01:35:10.863Z,15.40
2022-10-23T01:37:48.869Z,15.30
2022-10-23T01:40:33.802Z,15.30
2022-10-23T01:43:13.596Z,15.30
2022-10-23T01:45:45.698Z,15.30
2022-10-23T01:48:21.983Z,15.30
2022-10-23T01:50:50.949Z,15.30
2022-10-23T01:53:20.214Z,15.30
2022-10-23T01:55:49.367Z,15.70
2022-10-23T01:58:24.584Z,15.30
2022-10-23T02:00:55.558Z,15.30
2022-10-23T02:03:24.069Z,15.30
2022-10-23T02:05:51.759Z,15.30
2022-10-23T02:08:19.102Z,15.30
2022-10-23T02:10:56.941Z,15.30
2022-10-23T02:13:36.686Z,15.30
2022-10-23T02:16:16.590Z,15.30
2022-10-23T02:18:55.101Z,15.30
2022-10-23T02:21:34.247Z,15.30
2022-10-23T02:24:07.293Z,15.40
2022-10-23T02:26:49.324Z,15.40
2022-10-23T02:29:30.766Z,15.40
2022-10-23T02:32:00.968Z,15.40
2022-10-23T02:34:28.443Z,15.40
2022-10-23T02:36:56.255Z,15.40
2022-10-23T02:39:27.214Z,15.40
2022-10-23T02:42:30.837Z,15.30
2022-10-23T02:45:19.170Z,15.30
2022-10-23T02:48:17.114Z,15.40
2022-10-23T02:50:58.290Z,15.40
2022-10-23T02:53:59.678Z,15.50
2022-10-23T02:56:40.015Z,15.40
2022-10-23T02:59:17.819Z,15.40
2022-10-23T03:01:52.776Z,15.30
2022-10-23T03:04:23.913Z,15.30
2022-10-23T03:06:52.010Z,15.70
2022-10-23T03:09:19.433Z,15.30
2022-10-23T03:11:50.422Z,15.30
2022-10-23T03:14:17.967Z,15.30
2022-10-23T03:16:45.614Z,15.30
2022-10-23T03:19:13.490Z,15.30
2022-10-23T03:21:41.218Z,15.30
2022-10-23T03:24:09.273Z,15.50
2022-10-23T03:26:43.461Z,15.30
2022-10-23T03:29:11.234Z,15.30
2022-10-23T03:31:44.417Z,15.30
2022-10-23T03:34:11.702Z,15.30
2022-10-23T03:36:41.769Z,15.30
2022-10-23T03:39:10.443Z,15.20
2022-10-23T03:41:38.252Z,15.20
2022-10-23T03:44:05.939Z,15.20
2022-10-23T03:46:33.462Z,15.30
2022-10-23T03:49:01.083Z,15.30
2022-10-23T03:51:28.471Z,15.30
2022-10-23T03:53:58.078Z,15.30
2022-10-23T03:56:25.653Z,15.40
2022-10-23T03:58:53.072Z,15.40
2022-10-23T04:01:25.015Z,15.30
2022-10-23T04:03:52.546Z,15.30
2022-10-23T04:06:20.518Z,15.30
2022-10-23T04:08:48.420Z,15.30
2022-10-23T04:11:17.926Z,15.30
2022-10-23T04:13:46.649Z,15.30
2022-10-23T04:16:14.162Z,15.30
2022-10-23T04:18:41.987Z,15.30
2022-10-23T04:21:11.306Z,15.30
2022-10-23T04:23:39.553Z,15.60
2022-10-23T04:26:13.176Z,15.30
2022-10-23T04:28:40.578Z,15.30
2022-10-23T04:31:07.867Z,15.30
2022-10-23T04:33:35.626Z,15.30
2022-10-23T04:36:03.014Z,15.30
2022-10-23T04:38:30.433Z,15.40
2022-10-23T04:40:57.764Z,15.50
2022-10-23T04:43:25.795Z,15.50
2022-10-23T04:45:53.522Z,15.50
2022-10-23T04:48:25.537Z,15.40
2022-10-23T04:51:34.783Z,15.40
2022-10-23T04:54:12.739Z,15.40
2022-10-23T04:56:54.677Z,15.60
2022-10-23T04:59:22.482Z,15.30
2022-10-23T05:01:50.015Z,15.40
2022-10-23T05:04:18.434Z,15.60
2022-10-23T05:07:17.872Z,15.30
2022-10-23T05:09:58.582Z,15.40
2022-10-23T05:12:37.934Z,15.40
2022-10-23T05:15:05.851Z,15.40
2022-10-23T05:17:35.930Z,15.40
2022-10-23T05:20:07.860Z,15.30
2022-10-23T05:22:39.709Z,15.30
2022-10-23T05:25:11.286Z,15.30
2022-10-23T05:27:40.407Z,15.30
2022-10-23T05:30:11.994Z,15.30
2022-10-23T05:32:39.763Z,15.30
2022-10-23T05:35:14.766Z,15.20
2022-10-23T05:37:50.709Z,15.20
2022-10-23T05:40:21.489Z,15.20
2022-10-23T05:42:52.209Z,15.20
2022-10-23T05:45:26.715Z,15.10
2022-10-23T05:48:22.893Z,15.10
2022-10-23T05:51:09.219Z,15.10
2022-10-23T05:53:55.260Z,15.10
2022-10-23T05:56:32.277Z,15.10
2022-10-23T05:59:09.509Z,15.10
2022-10-23T06:02:03.632Z,15.00
2022-10-23T06:04:46.123Z,15.00
2022-10-23T06:07:22.969Z,15.00
2022-10-23T06:09:51.600Z,15.00
2022-10-23T06:12:20.841Z,15.00
2022-10-23T06:14:49.813Z,14.70
2022-10-23T06:17:17.107Z,15.00
2022-10-23T06:19:47.112Z,14.90
2022-10-23T06:24:54.393Z,14.90
2022-10-23T06:27:27.278Z,14.90
2022-10-23T06:29:56.137Z,14.90
2022-10-23T06:32:23.618Z,14.90
2022-10-23T06:35:05.518Z,14.90
2022-10-23T06:37:34.792Z,15.00
2022-10-23T06:40:16.409Z,15.00
2022-10-23T06:42:57.621Z,15.00
2022-10-23T06:45:34.665Z,15.00
2022-10-23T06:48:35.398Z,15.00
2022-10-23T06:51:08.234Z,15.00
2022-10-23T06:53:41.948Z,15.10
2022-10-23T06:56:48.065Z,15.10
2022-10-23T06:59:19.572Z,15.10
2022-10-23T07:01:50.181Z,15.10
2022-10-23T07:04:18.146Z,15.30
2022-10-23T07:06:45.755Z,15.10
2022-10-23T07:09:13.335Z,15.20
2022-10-23T07:11:52.820Z,15.10
2022-10-23T07:14:25.845Z,15.10
2022-10-23T07:16:53.360Z,15.10
2022-10-23T07:19:21.720Z,15.10
2022-10-23T07:22:01.141Z,15.20
2022-10-23T07:24:32.126Z,15.20
2022-10-23T07:27:01.497Z,15.30
2022-10-23T07:29:30.695Z,15.40
2022-10-23T07:32:00.884Z,15.40
2022-10-23T07:35:07.921Z,15.50
2022-10-23T07:37:37.332Z,15.40
2022-10-23T07:40:06.937Z,15.50
2022-10-23T07:42:41.481Z,15.50
2022-10-23T07:45:10.102Z,15.60
2022-10-23T07:47:40.798Z,15.60
2022-10-23T07:50:09.851Z,15.70
2022-10-23T07:52:37.526Z,15.60
2022-10-23T07:55:12.028Z,15.70
2022-10-23T07:57:48.670Z,15.80
2022-10-23T08:00:40.403Z,15.90
2022-10-23T08:03:14.673Z,16.00
2022-10-23T08:05:42.434Z,16.10
2022-10-23T08:08:10.243Z,16.20
2022-10-23T08:10:41.570Z,16.30
2022-10-23T08:13:14.096Z,16.40
2022-10-23T08:16:05.169Z,16.50
2022-10-23T08:19:06.089Z,16.70
2022-10-23T08:21:35.318Z,16.80
2022-10-23T08:24:04.608Z,17.00
2022-10-23T08:26:33.815Z,17.10
2022-10-23T08:29:02.324Z,17.40
2022-10-23T08:31:30.306Z,17.40
2022-10-23T08:34:15.554Z,17.50
2022-10-23T08:36:48.294Z,17.90
2022-10-23T08:39:16.441Z,17.70
2022-10-23T08:41:59.669Z,17.70
2022-10-23T08:44:42.848Z,17.80
2022-10-23T08:47:53.459Z,17.90
2022-10-23T08:50:52.912Z,18.00
2022-10-23T08:57:23.733Z,18.30
2022-10-23T09:00:12.627Z,18.70
2022-10-23T09:02:51.270Z,18.70
2022-10-23T09:05:52.252Z,18.60
2022-10-23T09:08:55.086Z,18.70
2022-10-23T09:11:32.414Z,19.00
2022-10-23T09:14:56.162Z,19.00
2022-10-23T09:17:38.220Z,18.50
2022-10-23T09:21:09.700Z,18.70
2022-10-23T09:24:11.301Z,18.80
2022-10-23T09:26:48.502Z,18.90
2022-10-23T09:29:41.856Z,18.90
2022-10-23T09:32:49.175Z,18.90
2022-10-23T09:35:34.293Z,18.80
2022-10-23T09:38:06.236Z,18.60
2022-10-23T09:40:42.054Z,18.70
2022-10-23T09:43:23.303Z,18.70
2022-10-23T09:45:59.530Z,18.70
2022-10-23T09:48:30.789Z,18.50
2022-10-23T09:51:14.721Z,18.50
2022-10-23T09:53:55.083Z,18.50
2022-10-23T09:56:27.142Z,18.50
2022-10-23T09:59:01.275Z,18.80
2022-10-23T10:01:32.733Z,18.60
2022-10-23T10:04:38.703Z,18.60
2022-10-23T10:07:21.352Z,18.60
2022-10-23T10:10:12.676Z,18.60
2022-10-23T12:46:21.517Z,21.20
2022-10-23T12:48:51.201Z,21.30
2022-10-23T12:51:24.125Z,21.50
2022-10-23T12:53:51.987Z,21.30
2022-10-23T12:56:20.406Z,21.40
2022-10-23T12:58:56.602Z,21.50
2022-10-23T13:01:29.864Z,21.40
2022-10-23T13:04:27.013Z,21.50
2022-10-23T13:06:57.122Z,21.50
2022-10-23T13:09:31.073Z,21.70
2022-10-23T13:12:34.304Z,21.50
2022-10-23T13:15:08.014Z,21.80
2022-10-23T13:17:35.770Z,21.60
2022-10-23T13:20:21.681Z,21.60
2022-10-23T13:23:00.472Z,21.80
2022-10-23T13:25:34.991Z,21.60
2022-10-23T13:28:24.430Z,21.80
2022-10-23T13:31:05.073Z,21.50
2022-10-23T13:33:50.855Z,21.60
2022-10-23T13:36:44.013Z,21.60
2022-10-23T13:39:41.458Z,21.70
2022-10-23T13:42:14.582Z,21.90
2022-10-23T13:47:38.693Z,21.70
2022-10-23T13:50:11.282Z,21.90
2022-10-23T13:52:39.249Z,21.80
2022-10-23T13:55:22.339Z,22.00
2022-10-23T13:57:49.925Z,22.00
2022-10-23T14:00:18.496Z,22.10
2022-10-23T14:02:45.967Z,22.00
2022-10-23T14:05:13.627Z,22.00
2022-10-23T14:07:45.599Z,22.20
2022-10-23T14:10:13.398Z,22.10
2022-10-23T14:12:42.428Z,22.30
2022-10-23T14:15:11.535Z,22.50
2022-10-23T14:17:42.297Z,22.30
2022-10-23T14:20:10.703Z,22.30
2022-10-23T14:23:16.404Z,22.30
2022-10-23T14:26:02.857Z,22.20
2022-10-23T14:28:40.970Z,22.20
2022-10-23T14:31:34.870Z,22.40
2022-10-23T14:35:06.140Z,22.50
2022-10-23T14:37:38.077Z,22.30
2022-10-23T14:40:39.228Z,22.30
2022-10-23T14:43:34.925Z,22.40
2022-10-23T14:50:45.538Z,22.50
2022-10-23T14:53:39.193Z,22.40
2022-10-23T14:56:07.136Z,22.30
2022-10-23T14:58:34.666Z,22.30
2022-10-23T15:01:03.535Z,22.30
2022-10-23T15:03:33.582Z,22.30
2022-10-23T15:06:01.394Z,22.30
2022-10-23T15:08:29.084Z,22.40
2022-10-23T15:11:01.231Z,22.50
2022-10-23T15:13:29.077Z,22.40
2022-10-23T15:16:08.919Z,22.50
2022-10-23T15:21:06.334Z,22.50
2022-10-23T15:23:35.068Z,22.30
2022-10-23T15:26:06.327Z,22.50
2022-10-23T15:28:35.088Z,22.20
2022-10-23T15:31:02.976Z,22.20
2022-10-23T15:33:30.506Z,22.40
2022-10-23T15:35:58.524Z,22.40
2022-10-23T15:38:26.231Z,22.20
2022-10-23T15:41:00.805Z,22.30
2022-10-23T15:43:28.257Z,22.30
2022-10-23T15:45:55.738Z,22.20
2022-10-23T15:48:23.535Z,22.10
2022-10-23T15:50:51.483Z,22.00
2022-10-23T15:53:21.696Z,22.20
2022-10-23T15:55:49.225Z,22.20
2022-10-23T15:58:16.806Z,22.00
2022-10-23T16:00:44.690Z,22.20
2022-10-23T16:03:12.558Z,22.00
2022-10-23T16:05:40.066Z,22.20
2022-10-23T16:08:07.870Z,22.20
2022-10-23T16:10:40.352Z,21.90
2022-10-23T16:13:08.339Z,21.90
2022-10-23T16:15:36.422Z,22.10
2022-10-23T16:18:04.738Z,21.90
2022-10-23T16:20:32.513Z,22.00
2022-10-23T16:23:00.477Z,21.70
2022-10-23T16:25:28.506Z,21.90
2022-10-23T16:27:59.189Z,21.90
2022-10-23T16:30:26.781Z,21.80
2022-10-23T16:32:55.048Z,21.60
2022-10-23T16:35:23.367Z,21.80
2022-10-23T16:38:03.170Z,21.80
2022-10-23T16:40:30.962Z,21.50
2022-10-23T16:43:17.246Z,21.70
2022-10-23T16:46:15.343Z,21.50
2022-10-23T16:48:43.485Z,21.50
2022-10-23T16:51:17.578Z,21.20
2022-10-23T16:53:46.233Z,21.40
2022-10-23T16:56:17.330Z,21.30
2022-10-23T16:58:48.068Z,21.50
2022-10-23T17:01:30.097Z,21.30
2022-10-23T17:03:58.096Z,21.30
2022-10-23T17:06:29.555Z,21.30
2022-10-23T17:09:01.189Z,21.20
2022-10-23T17:11:31.500Z,21.40
2022-10-23T17:14:02.613Z,21.40
2022-10-23T17:16:36.889Z,21.30
2022-10-23T17:19:16.080Z,21.30
2022-10-23T17:21:48.659Z,21.30
2022-10-23T17:24:19.357Z,21.10
2022-10-23T17:26:48.726Z,21.30
2022-10-23T17:29:17.007Z,21.20
2022-10-23T17:31:47.529Z,21.00
2022-10-23T17:34:27.745Z,21.10
2022-10-23T17:36:58.852Z,21.10
2022-10-23T17:39:28.960Z,21.10
2022-10-23T17:41:57.491Z,20.90
2022-10-23T17:44:31.008Z,20.90
2022-10-23T17:46:58.698Z,20.80
2022-10-23T17:49:26.561Z,21.00
2022-10-23T17:51:56.437Z,20.80
2022-10-23T18:01:18.995Z,20.70
2022-10-23T18:03:48.425Z,20.70
2022-10-23T18:06:19.273Z,20.70
2022-10-23T18:08:47.806Z,20.90
2022-10-23T18:11:21.609Z,20.70
2022-10-23T18:13:50.918Z,20.70
2022-10-23T18:16:42.519Z,20.80
2022-10-23T18:19:10.926Z,20.90
2022-10-23T18:25:38.482Z,20.50
2022-10-23T18:28:23.832Z,20.60
2022-10-23T18:30:54.638Z,20.80
2022-10-23T18:33:24.950Z,20.80
2022-10-23T18:35:52.886Z,20.70
2022-10-23T18:38:20.852Z,20.70
2022-10-23T18:40:57.422Z,20.80
2022-10-23T18:43:42.692Z,20.40
2022-10-23T18:46:14.826Z,20.70
2022-10-23T18:48:43.596Z,20.80
2022-10-23T18:51:20.037Z,20.80
2022-10-23T18:53:52.369Z,20.60
2022-10-23T18:56:24.698Z,20.60
2022-10-23T18:59:00.108Z,20.70
2022-10-23T19:01:28.884Z,20.70
2022-10-23T19:03:58.882Z,20.80
2022-10-23T19:06:27.939Z,20.90
2022-10-23T19:08:56.681Z,20.70
2022-10-23T19:11:26.395Z,20.70
2022-10-23T19:13:53.942Z,20.90
2022-10-23T19:16:36.567Z,20.60
2022-10-23T19:19:19.959Z,20.70
2022-10-23T19:21:49.010Z,20.40
2022-10-23T19:24:22.792Z,20.40
2022-10-23T19:26:50.594Z,20.30
2022-10-23T20:20:39.786Z,20.20
2022-10-23T20:23:07.356Z,20.10
2022-10-23T20:25:34.862Z,20.30
2022-10-23T20:28:02.346Z,20.10
2022-10-23T20:30:30.072Z,20.10
2022-10-23T20:32:57.737Z,20.30
2022-10-23T20:35:25.303Z,20.30
2022-10-23T20:37:53.589Z,20.10
2022-10-23T20:40:21.148Z,20.00
2022-10-23T20:42:56.296Z,20.20
2022-10-23T20:45:23.612Z,20.00
2022-10-23T20:47:51.042Z,20.20
2022-10-23T20:50:19.335Z,20.10
2022-10-23T20:52:46.723Z,20.40
2022-10-23T20:55:14.002Z,20.00
2022-10-23T20:57:41.880Z,20.00
2022-10-23T21:00:12.707Z,20.00
2022-10-23T21:02:40.900Z,20.00
2022-10-23T21:05:11.719Z,20.00
2022-10-23T21:07:39.696Z,20.00
2022-10-23T21:10:07.609Z,20.30
2022-10-23T21:12:35.185Z,20.00
2022-10-23T21:15:02.587Z,20.00
2022-10-23T21:17:35.734Z,20.10
2022-10-23T21:20:03.766Z,19.90
2022-10-23T21:22:31.453Z,19.90
2022-10-23T21:25:00.140Z,20.10
2022-10-23T21:27:27.739Z,20.10
2022-10-23T21:29:55.086Z,19.80
2022-10-23T21:32:22.517Z,19.80
2022-10-23T21:34:49.897Z,19.90
2022-10-23T21:37:17.526Z,19.80
2022-10-23T21:39:46.196Z,19.80
2022-10-23T21:42:14.265Z,19.70
2022-10-23T21:44:41.741Z,19.90
2022-10-23T21:47:09.916Z,19.90
2022-10-23T21:49:37.908Z,19.70
2022-10-23T21:52:05.712Z,19.60
2022-10-23T21:54:34.622Z,19.90
2022-10-23T21:57:03.432Z,19.80
2022-10-23T21:59:34.808Z,19.80
2022-10-23T22:02:04.032Z,19.70
2022-10-23T22:04:32.700Z,19.60
2022-10-23T22:07:03.062Z,19.50
2022-10-23T22:09:31.846Z,19.50
2022-10-23T22:12:00.570Z,19.90
2022-10-23T22:14:29.081Z,19.50
2022-10-23T22:16:58.786Z,19.50
2022-10-23T22:19:26.722Z,19.40
2022-10-23T22:21:55.266Z,19.40
2022-10-23T22:24:22.610Z,19.60
2022-10-23T22:26:53.705Z,19.40
2022-10-23T22:29:24.067Z,19.40
2022-10-23T22:31:52.301Z,19.40
2022-10-23T22:37:12.148Z,19.30
2022-10-23T22:39:40.260Z,19.30
2022-10-23T22:42:11.134Z,19.30
2022-10-23T22:44:39.161Z,19.40
2022-10-23T22:47:06.779Z,19.40
2022-10-23T22:49:34.052Z,19.30
2022-10-23T22:52:01.739Z,19.30
2022-10-23T22:54:31.234Z,19.40
2022-10-23T22:56:59.079Z,19.40
2022-10-23T22:59:27.141Z,19.30
2022-10-23T23:01:54.852Z,19.30
2022-10-23T23:04:38.968Z,19.10
2022-10-23T23:07:12.511Z,19.10
2022-10-23T23:09:42.789Z,19.30
2022-10-23T23:12:12.223Z,19.00
2022-10-23T23:14:40.427Z,19.00
2022-10-23T23:17:08.618Z,19.00
2022-10-23T23:19:36.784Z,18.90
2022-10-23T23:22:04.774Z,18.90
2022-10-23T23:24:32.682Z,18.80
2022-10-23T23:27:00.409Z,18.90
2022-10-23T23:29:29.558Z,19.00
2022-10-23T23:31:57.240Z,18.80
2022-10-23T23:34:25.133Z,19.00
2022-10-23T23:36:52.486Z,18.80
2022-10-23T23:39:20.418Z,18.70
2022-10-23T23:41:48.015Z,18.70
2022-10-23T23:44:15.416Z,18.70
2022-10-23T23:46:43.035Z,18.90
2022-10-23T23:49:10.688Z,18.60
2022-10-23T23:51:38.370Z,18.80
2022-10-23T23:54:07.156Z,18.80
2022-10-23T23:56:34.935Z,18.60
2022-10-23T23:59:02.365Z,18.80
